Solnethnaya, Russia
Current Conditions -  °F | °C
As of 2:30 PM on Wednesday 26 Nov 2014 (Local Time) from UIUU Reporting Station
Few Clouds Few Clouds  
Wind Chill: -4°   Ceiling: Unl
Heat Index: 10°   Visibility: 6mi
Dew Point: -9°   Wind: 11mph
Humidity: 41%   Direction: 240°WSW
Pressure: 29.94"   Gusts: NA
Location:  54.03°N, 108.27°E
Report Text: UIUU 260630Z 24005MPS 200V280 9999 FEW033CB M12/M23 Q1014 NOSIGRMK QFE716/0955 26410560
Loading
Personal Weather Stations






























Interactive Weather Map New forecast layout! Learn more

10-Day Weather Forecast

Advertisements
Track Severe Weather on mobile